sensor_id;sensor_type;location;lat;lon;timestamp;P1;durP1;ratioP1;P2;durP2;ratioP2
15595;SDS011;7898;48.658;9.068;2022-09-25T00:00:46;12.13;;;10.50;;
15595;SDS011;7898;48.658;9.068;2022-09-25T00:03:15;12.27;;;10.83;;
15595;SDS011;7898;48.658;9.068;2022-09-25T00:05:44;11.47;;;9.33;;
15595;SDS011;7898;48.658;9.068;2022-09-25T00:08:12;14.63;;;10.07;;
15595;SDS011;7898;48.658;9.068;2022-09-25T00:10:39;18.00;;;9.67;;
15595;SDS011;7898;48.658;9.068;2022-09-25T00:13:07;13.87;;;9.80;;
15595;SDS011;7898;48.658;9.068;2022-09-25T00:15:34;11.80;;;9.77;;
15595;SDS011;7898;48.658;9.068;2022-09-25T00:18:03;11.53;;;10.33;;
15595;SDS011;7898;48.658;9.068;2022-09-25T00:20:29;11.40;;;10.20;;
15595;SDS011;7898;48.658;9.068;2022-09-25T00:22:55;11.40;;;9.33;;
15595;SDS011;7898;48.658;9.068;2022-09-25T00:25:24;10.37;;;9.27;;
15595;SDS011;7898;48.658;9.068;2022-09-25T00:27:52;16.43;;;9.57;;
15595;SDS011;7898;48.658;9.068;2022-09-25T00:30:19;18.57;;;9.30;;
15595;SDS011;7898;48.658;9.068;2022-09-25T00:32:47;16.53;;;9.03;;
15595;SDS011;7898;48.658;9.068;2022-09-25T00:35:15;13.97;;;8.83;;
15595;SDS011;7898;48.658;9.068;2022-09-25T00:37:42;12.23;;;9.10;;
15595;SDS011;7898;48.658;9.068;2022-09-25T00:40:09;11.87;;;8.27;;
15595;SDS011;7898;48.658;9.068;2022-09-25T00:42:36;10.90;;;8.67;;
15595;SDS011;7898;48.658;9.068;2022-09-25T00:45:03;13.60;;;9.33;;
15595;SDS011;7898;48.658;9.068;2022-09-25T00:47:41;22.13;;;10.57;;
15595;SDS011;7898;48.658;9.068;2022-09-25T00:50:16;17.23;;;11.90;;
15595;SDS011;7898;48.658;9.068;2022-09-25T00:52:47;19.67;;;12.67;;
15595;SDS011;7898;48.658;9.068;2022-09-25T00:55:15;20.20;;;11.57;;
15595;SDS011;7898;48.658;9.068;2022-09-25T00:57:43;24.70;;;9.83;;
15595;SDS011;7898;48.658;9.068;2022-09-25T01:00:14;12.27;;;9.37;;
15595;SDS011;7898;48.658;9.068;2022-09-25T01:02:42;11.77;;;8.97;;
15595;SDS011;7898;48.658;9.068;2022-09-25T01:05:12;13.57;;;9.70;;
15595;SDS011;7898;48.658;9.068;2022-09-25T01:07:44;19.97;;;8.70;;
15595;SDS011;7898;48.658;9.068;2022-09-25T01:10:13;12.17;;;8.60;;
15595;SDS011;7898;48.658;9.068;2022-09-25T01:12:42;14.47;;;8.27;;
15595;SDS011;7898;48.658;9.068;2022-09-25T01:15:11;10.53;;;7.57;;
15595;SDS011;7898;48.658;9.068;2022-09-25T01:17:42;14.37;;;9.03;;
15595;SDS011;7898;48.658;9.068;2022-09-25T01:20:22;11.30;;;8.83;;
15595;SDS011;7898;48.658;9.068;2022-09-25T01:23:15;14.40;;;9.77;;
15595;SDS011;7898;48.658;9.068;2022-09-25T01:25:56;13.57;;;10.37;;
15595;SDS011;7898;48.658;9.068;2022-09-25T01:31:24;16.97;;;11.43;;
15595;SDS011;7898;48.658;9.068;2022-09-25T01:33:58;21.90;;;12.67;;
15595;SDS011;7898;48.658;9.068;2022-09-25T01:36:32;23.37;;;13.23;;
15595;SDS011;7898;48.658;9.068;2022-09-25T01:39:12;20.73;;;12.97;;
15595;SDS011;7898;48.658;9.068;2022-09-25T01:41:46;24.97;;;14.37;;
15595;SDS011;7898;48.658;9.068;2022-09-25T01:44:19;21.77;;;13.60;;
15595;SDS011;7898;48.658;9.068;2022-09-25T01:46:52;21.87;;;13.53;;
15595;SDS011;7898;48.658;9.068;2022-09-25T01:49:24;26.03;;;15.20;;
15595;SDS011;7898;48.658;9.068;2022-09-25T01:51:57;24.43;;;15.40;;
15595;SDS011;7898;48.658;9.068;2022-09-25T01:54:29;55.47;;;16.43;;
15595;SDS011;7898;48.658;9.068;2022-09-25T01:57:02;29.33;;;15.17;;
15595;SDS011;7898;48.658;9.068;2022-09-25T01:59:35;27.70;;;14.73;;
15595;SDS011;7898;48.658;9.068;2022-09-25T02:02:09;27.47;;;13.93;;
15595;SDS011;7898;48.658;9.068;2022-09-25T02:04:40;35.10;;;14.57;;
15595;SDS011;7898;48.658;9.068;2022-09-25T02:07:11;23.93;;;13.70;;
15595;SDS011;7898;48.658;9.068;2022-09-25T02:09:46;34.40;;;12.53;;
15595;SDS011;7898;48.658;9.068;2022-09-25T02:12:18;29.67;;;12.13;;
15595;SDS011;7898;48.658;9.068;2022-09-25T02:14:50;25.30;;;12.47;;
15595;SDS011;7898;48.658;9.068;2022-09-25T02:17:20;47.83;;;13.17;;
15595;SDS011;7898;48.658;9.068;2022-09-25T02:20:08;26.03;;;13.30;;
15595;SDS011;7898;48.658;9.068;2022-09-25T02:22:53;29.97;;;14.10;;
15595;SDS011;7898;48.658;9.068;2022-09-25T02:25:24;31.50;;;12.40;;
15595;SDS011;7898;48.658;9.068;2022-09-25T02:28:00;52.83;;;12.30;;
15595;SDS011;7898;48.658;9.068;2022-09-25T02:30:29;24.63;;;12.13;;
15595;SDS011;7898;48.658;9.068;2022-09-25T02:32:56;23.03;;;12.90;;
15595;SDS011;7898;48.658;9.068;2022-09-25T02:35:23;27.60;;;13.60;;
15595;SDS011;7898;48.658;9.068;2022-09-25T02:37:50;38.37;;;14.80;;
15595;SDS011;7898;48.658;9.068;2022-09-25T02:40:17;46.17;;;15.87;;
15595;SDS011;7898;48.658;9.068;2022-09-25T02:42:47;27.20;;;15.63;;
15595;SDS011;7898;48.658;9.068;2022-09-25T02:45:21;35.07;;;16.40;;
15595;SDS011;7898;48.658;9.068;2022-09-25T02:48:02;40.77;;;15.83;;
15595;SDS011;7898;48.658;9.068;2022-09-25T02:50:37;29.40;;;16.70;;
15595;SDS011;7898;48.658;9.068;2022-09-25T02:53:14;28.40;;;17.37;;
15595;SDS011;7898;48.658;9.068;2022-09-25T02:55:47;35.03;;;16.07;;
15595;SDS011;7898;48.658;9.068;2022-09-25T02:58:18;28.50;;;16.67;;
15595;SDS011;7898;48.658;9.068;2022-09-25T03:00:51;33.53;;;16.83;;
15595;SDS011;7898;48.658;9.068;2022-09-25T03:03:21;30.70;;;17.73;;
15595;SDS011;7898;48.658;9.068;2022-09-25T03:05:50;30.43;;;17.30;;
15595;SDS011;7898;48.658;9.068;2022-09-25T03:08:20;30.33;;;18.27;;
15595;SDS011;7898;48.658;9.068;2022-09-25T03:11:05;30.40;;;17.17;;
15595;SDS011;7898;48.658;9.068;2022-09-25T03:13:33;27.13;;;16.47;;
15595;SDS011;7898;48.658;9.068;2022-09-25T03:16:02;26.17;;;16.50;;
15595;SDS011;7898;48.658;9.068;2022-09-25T03:18:33;24.13;;;15.60;;
15595;SDS011;7898;48.658;9.068;2022-09-25T03:21:00;24.80;;;15.67;;
15595;SDS011;7898;48.658;9.068;2022-09-25T03:23:28;21.90;;;15.30;;
15595;SDS011;7898;48.658;9.068;2022-09-25T03:25:55;23.43;;;14.73;;
15595;SDS011;7898;48.658;9.068;2022-09-25T03:28:22;31.83;;;15.73;;
15595;SDS011;7898;48.658;9.068;2022-09-25T03:30:56;21.17;;;14.37;;
15595;SDS011;7898;48.658;9.068;2022-09-25T03:33:27;25.17;;;14.77;;
15595;SDS011;7898;48.658;9.068;2022-09-25T03:35:58;20.93;;;14.10;;
15595;SDS011;7898;48.658;9.068;2022-09-25T03:38:26;21.43;;;14.73;;
15595;SDS011;7898;48.658;9.068;2022-09-25T03:40:53;21.00;;;14.00;;
15595;SDS011;7898;48.658;9.068;2022-09-25T03:43:20;18.33;;;13.23;;
15595;SDS011;7898;48.658;9.068;2022-09-25T03:45:47;19.17;;;13.07;;
15595;SDS011;7898;48.658;9.068;2022-09-25T03:48:14;21.47;;;12.17;;
15595;SDS011;7898;48.658;9.068;2022-09-25T03:50:43;75.67;;;13.43;;
15595;SDS011;7898;48.658;9.068;2022-09-25T03:53:11;78.37;;;13.40;;
15595;SDS011;7898;48.658;9.068;2022-09-25T03:55:37;34.40;;;12.70;;
15595;SDS011;7898;48.658;9.068;2022-09-25T03:58:04;14.30;;;11.00;;
15595;SDS011;7898;48.658;9.068;2022-09-25T04:00:31;17.77;;;11.97;;
15595;SDS011;7898;48.658;9.068;2022-09-25T04:02:58;24.07;;;13.60;;
15595;SDS011;7898;48.658;9.068;2022-09-25T04:05:25;18.27;;;12.10;;
15595;SDS011;7898;48.658;9.068;2022-09-25T04:07:53;18.33;;;12.73;;
15595;SDS011;7898;48.658;9.068;2022-09-25T04:10:20;21.00;;;14.20;;
15595;SDS011;7898;48.658;9.068;2022-09-25T04:12:47;16.00;;;12.83;;
15595;SDS011;7898;48.658;9.068;2022-09-25T04:15:13;18.43;;;12.83;;
15595;SDS011;7898;48.658;9.068;2022-09-25T04:17:40;18.10;;;13.10;;
15595;SDS011;7898;48.658;9.068;2022-09-25T04:20:07;18.43;;;12.77;;
15595;SDS011;7898;48.658;9.068;2022-09-25T04:22:34;18.57;;;12.90;;
15595;SDS011;7898;48.658;9.068;2022-09-25T04:25:03;21.33;;;13.20;;
15595;SDS011;7898;48.658;9.068;2022-09-25T04:27:31;18.73;;;13.47;;
15595;SDS011;7898;48.658;9.068;2022-09-25T04:29:58;17.43;;;12.83;;
15595;SDS011;7898;48.658;9.068;2022-09-25T04:32:25;17.97;;;13.37;;
15595;SDS011;7898;48.658;9.068;2022-09-25T04:35:09;16.57;;;12.27;;
15595;SDS011;7898;48.658;9.068;2022-09-25T04:37:36;18.07;;;12.83;;
15595;SDS011;7898;48.658;9.068;2022-09-25T04:40:05;17.00;;;12.63;;
15595;SDS011;7898;48.658;9.068;2022-09-25T04:42:33;20.67;;;13.53;;
15595;SDS011;7898;48.658;9.068;2022-09-25T04:45:00;14.80;;;11.93;;
15595;SDS011;7898;48.658;9.068;2022-09-25T04:47:27;16.30;;;11.87;;
15595;SDS011;7898;48.658;9.068;2022-09-25T04:49:54;16.50;;;12.37;;
15595;SDS011;7898;48.658;9.068;2022-09-25T04:52:21;16.67;;;12.20;;
15595;SDS011;7898;48.658;9.068;2022-09-25T04:54:48;13.53;;;11.37;;
15595;SDS011;7898;48.658;9.068;2022-09-25T04:57:16;15.23;;;10.50;;
15595;SDS011;7898;48.658;9.068;2022-09-25T04:59:44;14.43;;;10.00;;
15595;SDS011;7898;48.658;9.068;2022-09-25T05:02:12;13.40;;;11.10;;
15595;SDS011;7898;48.658;9.068;2022-09-25T05:04:38;13.17;;;9.70;;
15595;SDS011;7898;48.658;9.068;2022-09-25T05:07:05;12.77;;;9.57;;
15595;SDS011;7898;48.658;9.068;2022-09-25T05:09:32;11.90;;;9.23;;
15595;SDS011;7898;48.658;9.068;2022-09-25T05:11:59;13.80;;;9.60;;
15595;SDS011;7898;48.658;9.068;2022-09-25T05:14:28;14.10;;;9.90;;
15595;SDS011;7898;48.658;9.068;2022-09-25T05:16:55;13.20;;;9.77;;
15595;SDS011;7898;48.658;9.068;2022-09-25T05:19:22;14.70;;;10.50;;
15595;SDS011;7898;48.658;9.068;2022-09-25T05:21:48;14.40;;;11.23;;
15595;SDS011;7898;48.658;9.068;2022-09-25T05:24:19;16.93;;;11.83;;
15595;SDS011;7898;48.658;9.068;2022-09-25T05:26:46;18.10;;;12.00;;
15595;SDS011;7898;48.658;9.068;2022-09-25T05:29:13;14.03;;;10.70;;
15595;SDS011;7898;48.658;9.068;2022-09-25T05:31:41;14.80;;;11.33;;
15595;SDS011;7898;48.658;9.068;2022-09-25T05:34:10;15.63;;;12.17;;
15595;SDS011;7898;48.658;9.068;2022-09-25T05:36:37;14.43;;;11.43;;
15595;SDS011;7898;48.658;9.068;2022-09-25T05:39:04;14.70;;;11.82;;
15595;SDS011;7898;48.658;9.068;2022-09-25T05:41:31;19.13;;;13.23;;
15595;SDS011;7898;48.658;9.068;2022-09-25T05:44:00;16.23;;;12.03;;
15595;SDS011;7898;48.658;9.068;2022-09-25T05:46:30;17.20;;;12.07;;
15595;SDS011;7898;48.658;9.068;2022-09-25T05:48:59;18.93;;;13.07;;
15595;SDS011;7898;48.658;9.068;2022-09-25T05:51:26;17.87;;;12.23;;
15595;SDS011;7898;48.658;9.068;2022-09-25T05:53:53;12.43;;;11.13;;
15595;SDS011;7898;48.658;9.068;2022-09-25T05:56:20;12.63;;;10.83;;
15595;SDS011;7898;48.658;9.068;2022-09-25T05:58:48;13.77;;;10.63;;
15595;SDS011;7898;48.658;9.068;2022-09-25T06:01:15;12.70;;;9.23;;
15595;SDS011;7898;48.658;9.068;2022-09-25T06:03:42;15.00;;;10.05;;
15595;SDS011;7898;48.658;9.068;2022-09-25T06:06:10;11.13;;;9.13;;
15595;SDS011;7898;48.658;9.068;2022-09-25T06:08:37;11.10;;;8.73;;
15595;SDS011;7898;48.658;9.068;2022-09-25T06:11:04;10.90;;;8.60;;
15595;SDS011;7898;48.658;9.068;2022-09-25T06:13:35;11.70;;;9.07;;
15595;SDS011;7898;48.658;9.068;2022-09-25T06:16:03;11.07;;;8.80;;
15595;SDS011;7898;48.658;9.068;2022-09-25T06:18:30;13.90;;;8.70;;
15595;SDS011;7898;48.658;9.068;2022-09-25T06:20:58;12.53;;;9.73;;
15595;SDS011;7898;48.658;9.068;2022-09-25T06:23:28;12.47;;;9.93;;
15595;SDS011;7898;48.658;9.068;2022-09-25T06:25:58;11.80;;;9.37;;
15595;SDS011;7898;48.658;9.068;2022-09-25T06:28:26;14.63;;;10.53;;
15595;SDS011;7898;48.658;9.068;2022-09-25T06:30:53;12.70;;;10.63;;
15595;SDS011;7898;48.658;9.068;2022-09-25T06:33:20;11.33;;;10.07;;
15595;SDS011;7898;48.658;9.068;2022-09-25T06:35:47;14.63;;;10.67;;
15595;SDS011;7898;48.658;9.068;2022-09-25T06:38:15;13.77;;;10.70;;
15595;SDS011;7898;48.658;9.068;2022-09-25T06:40:43;11.97;;;9.90;;
15595;SDS011;7898;48.658;9.068;2022-09-25T06:43:11;11.70;;;9.60;;
15595;SDS011;7898;48.658;9.068;2022-09-25T06:45:39;10.77;;;9.10;;
15595;SDS011;7898;48.658;9.068;2022-09-25T06:48:07;11.03;;;8.40;;
15595;SDS011;7898;48.658;9.068;2022-09-25T06:50:37;11.80;;;10.30;;
15595;SDS011;7898;48.658;9.068;2022-09-25T06:53:06;11.35;;;9.80;;
15595;SDS011;7898;48.658;9.068;2022-09-25T06:55:33;15.87;;;10.67;;
15595;SDS011;7898;48.658;9.068;2022-09-25T06:58:03;11.80;;;10.23;;
15595;SDS011;7898;48.658;9.068;2022-09-25T07:00:31;12.83;;;10.50;;
15595;SDS011;7898;48.658;9.068;2022-09-25T07:02:58;14.00;;;10.45;;
15595;SDS011;7898;48.658;9.068;2022-09-25T07:05:43;11.80;;;10.23;;
15595;SDS011;7898;48.658;9.068;2022-09-25T07:08:12;14.13;;;10.95;;
15595;SDS011;7898;48.658;9.068;2022-09-25T07:10:45;14.00;;;10.75;;
15595;SDS011;7898;48.658;9.068;2022-09-25T07:13:15;10.80;;;9.48;;
15595;SDS011;7898;48.658;9.068;2022-09-25T07:15:42;14.20;;;11.13;;
15595;SDS011;7898;48.658;9.068;2022-09-25T07:18:15;10.75;;;9.52;;
15595;SDS011;7898;48.658;9.068;2022-09-25T07:20:42;12.23;;;10.33;;
15595;SDS011;7898;48.658;9.068;2022-09-25T07:23:10;13.18;;;10.85;;
15595;SDS011;7898;48.658;9.068;2022-09-25T07:25:38;13.55;;;10.98;;
15595;SDS011;7898;48.658;9.068;2022-09-25T07:28:05;14.00;;;10.48;;
15595;SDS011;7898;48.658;9.068;2022-09-25T07:30:33;13.32;;;11.10;;
15595;SDS011;7898;48.658;9.068;2022-09-25T07:33:01;14.52;;;11.75;;
15595;SDS011;7898;48.658;9.068;2022-09-25T07:35:27;15.77;;;11.75;;
15595;SDS011;7898;48.658;9.068;2022-09-25T07:37:54;15.27;;;12.30;;
15595;SDS011;7898;48.658;9.068;2022-09-25T07:40:22;14.80;;;11.80;;
15595;SDS011;7898;48.658;9.068;2022-09-25T07:42:50;14.40;;;12.88;;
15595;SDS011;7898;48.658;9.068;2022-09-25T07:45:17;14.90;;;11.65;;
15595;SDS011;7898;48.658;9.068;2022-09-25T07:47:46;12.77;;;11.00;;
15595;SDS011;7898;48.658;9.068;2022-09-25T07:50:12;12.63;;;10.30;;
15595;SDS011;7898;48.658;9.068;2022-09-25T07:52:39;13.23;;;10.60;;
15595;SDS011;7898;48.658;9.068;2022-09-25T07:55:07;12.45;;;10.48;;
15595;SDS011;7898;48.658;9.068;2022-09-25T07:57:34;13.45;;;10.25;;
15595;SDS011;7898;48.658;9.068;2022-09-25T08:00:01;11.82;;;10.20;;
15595;SDS011;7898;48.658;9.068;2022-09-25T08:02:29;12.45;;;10.20;;
15595;SDS011;7898;48.658;9.068;2022-09-25T08:04:58;12.00;;;10.00;;
15595;SDS011;7898;48.658;9.068;2022-09-25T08:07:26;14.82;;;10.48;;
15595;SDS011;7898;48.658;9.068;2022-09-25T08:09:53;11.98;;;10.27;;
15595;SDS011;7898;48.658;9.068;2022-09-25T08:12:20;12.15;;;9.70;;
15595;SDS011;7898;48.658;9.068;2022-09-25T08:14:48;12.65;;;9.57;;
15595;SDS011;7898;48.658;9.068;2022-09-25T08:17:15;11.15;;;9.60;;
15595;SDS011;7898;48.658;9.068;2022-09-25T08:19:42;12.63;;;10.43;;
15595;SDS011;7898;48.658;9.068;2022-09-25T08:22:11;13.43;;;10.70;;
15595;SDS011;7898;48.658;9.068;2022-09-25T08:24:38;12.00;;;10.05;;
15595;SDS011;7898;48.658;9.068;2022-09-25T08:27:05;10.60;;;8.82;;
15595;SDS011;7898;48.658;9.068;2022-09-25T08:29:32;7.80;;;6.93;;
15595;SDS011;7898;48.658;9.068;2022-09-25T08:31:59;7.85;;;7.05;;
15595;SDS011;7898;48.658;9.068;2022-09-25T08:34:26;9.43;;;8.40;;
15595;SDS011;7898;48.658;9.068;2022-09-25T08:36:53;12.25;;;9.68;;
15595;SDS011;7898;48.658;9.068;2022-09-25T08:39:22;9.38;;;7.43;;
15595;SDS011;7898;48.658;9.068;2022-09-25T08:41:50;9.27;;;7.65;;
15595;SDS011;7898;48.658;9.068;2022-09-25T08:44:20;10.15;;;8.48;;
15595;SDS011;7898;48.658;9.068;2022-09-25T08:46:51;8.60;;;7.70;;
15595;SDS011;7898;48.658;9.068;2022-09-25T08:49:40;8.82;;;7.55;;
15595;SDS011;7898;48.658;9.068;2022-09-25T08:52:12;9.73;;;8.13;;
15595;SDS011;7898;48.658;9.068;2022-09-25T08:54:43;8.43;;;7.30;;
15595;SDS011;7898;48.658;9.068;2022-09-25T08:57:12;12.45;;;7.85;;
15595;SDS011;7898;48.658;9.068;2022-09-25T08:59:48;7.70;;;6.88;;
15595;SDS011;7898;48.658;9.068;2022-09-25T09:02:19;8.98;;;6.95;;
15595;SDS011;7898;48.658;9.068;2022-09-25T09:04:49;9.57;;;7.28;;
15595;SDS011;7898;48.658;9.068;2022-09-25T09:07:20;8.20;;;7.32;;
15595;SDS011;7898;48.658;9.068;2022-09-25T09:09:51;7.85;;;6.78;;
15595;SDS011;7898;48.658;9.068;2022-09-25T09:12:25;9.27;;;5.88;;
15595;SDS011;7898;48.658;9.068;2022-09-25T09:15:03;7.28;;;6.40;;
15595;SDS011;7898;48.658;9.068;2022-09-25T09:17:40;6.45;;;5.85;;
15595;SDS011;7898;48.658;9.068;2022-09-25T09:20:12;13.07;;;9.25;;
15595;SDS011;7898;48.658;9.068;2022-09-25T09:22:44;8.27;;;5.53;;
15595;SDS011;7898;48.658;9.068;2022-09-25T09:25:24;6.55;;;5.80;;
15595;SDS011;7898;48.658;9.068;2022-09-25T09:31:04;9.07;;;6.15;;
15595;SDS011;7898;48.658;9.068;2022-09-25T09:33:41;32.15;;;19.15;;
15595;SDS011;7898;48.658;9.068;2022-09-25T09:36:17;14.52;;;9.93;;
15595;SDS011;7898;48.658;9.068;2022-09-25T09:38:52;7.05;;;5.80;;
15595;SDS011;7898;48.658;9.068;2022-09-25T09:41:32;7.07;;;5.97;;
15595;SDS011;7898;48.658;9.068;2022-09-25T09:44:17;6.75;;;6.00;;
15595;SDS011;7898;48.658;9.068;2022-09-25T09:46:57;6.88;;;6.18;;
15595;SDS011;7898;48.658;9.068;2022-09-25T09:49:32;12.52;;;8.73;;
15595;SDS011;7898;48.658;9.068;2022-09-25T09:52:03;29.83;;;15.73;;
15595;SDS011;7898;48.658;9.068;2022-09-25T09:54:37;20.67;;;13.40;;
15595;SDS011;7898;48.658;9.068;2022-09-25T09:57:11;9.20;;;7.80;;
15595;SDS011;7898;48.658;9.068;2022-09-25T09:59:44;9.40;;;6.63;;
15595;SDS011;7898;48.658;9.068;2022-09-25T10:02:16;9.27;;;7.32;;
15595;SDS011;7898;48.658;9.068;2022-09-25T10:04:52;7.28;;;6.25;;
15595;SDS011;7898;48.658;9.068;2022-09-25T10:07:21;9.35;;;6.97;;
15595;SDS011;7898;48.658;9.068;2022-09-25T10:09:48;11.52;;;6.78;;
15595;SDS011;7898;48.658;9.068;2022-09-25T10:12:22;7.00;;;6.05;;
15595;SDS011;7898;48.658;9.068;2022-09-25T10:14:54;8.70;;;6.63;;
15595;SDS011;7898;48.658;9.068;2022-09-25T10:17:23;8.90;;;6.75;;
15595;SDS011;7898;48.658;9.068;2022-09-25T10:19:53;8.10;;;6.57;;
15595;SDS011;7898;48.658;9.068;2022-09-25T10:22:39;6.63;;;5.93;;
15595;SDS011;7898;48.658;9.068;2022-09-25T10:25:09;7.45;;;6.50;;
15595;SDS011;7898;48.658;9.068;2022-09-25T10:27:37;8.18;;;6.43;;
15595;SDS011;7898;48.658;9.068;2022-09-25T10:30:12;9.02;;;7.13;;
15595;SDS011;7898;48.658;9.068;2022-09-25T10:32:44;10.45;;;7.57;;
15595;SDS011;7898;48.658;9.068;2022-09-25T10:35:17;10.63;;;7.38;;
15595;SDS011;7898;48.658;9.068;2022-09-25T10:37:47;11.02;;;7.88;;
15595;SDS011;7898;48.658;9.068;2022-09-25T10:40:24;9.68;;;7.70;;
15595;SDS011;7898;48.658;9.068;2022-09-25T10:43:04;11.57;;;9.15;;
15595;SDS011;7898;48.658;9.068;2022-09-25T10:45:40;8.60;;;7.57;;
15595;SDS011;7898;48.658;9.068;2022-09-25T10:48:25;11.95;;;9.20;;
15595;SDS011;7898;48.658;9.068;2022-09-25T10:51:11;10.55;;;8.82;;
15595;SDS011;7898;48.658;9.068;2022-09-25T10:53:42;9.93;;;8.05;;
15595;SDS011;7898;48.658;9.068;2022-09-25T10:56:10;9.57;;;6.97;;
15595;SDS011;7898;48.658;9.068;2022-09-25T10:58:42;9.88;;;7.78;;
15595;SDS011;7898;48.658;9.068;2022-09-25T11:01:13;10.38;;;7.68;;
15595;SDS011;7898;48.658;9.068;2022-09-25T11:03:49;9.93;;;7.35;;
15595;SDS011;7898;48.658;9.068;2022-09-25T11:06:20;12.00;;;8.30;;
15595;SDS011;7898;48.658;9.068;2022-09-25T11:08:53;10.90;;;7.97;;
15595;SDS011;7898;48.658;9.068;2022-09-25T11:11:26;11.65;;;7.50;;
15595;SDS011;7898;48.658;9.068;2022-09-25T11:13:55;9.27;;;7.35;;
15595;SDS011;7898;48.658;9.068;2022-09-25T11:19:13;8.77;;;7.68;;
15595;SDS011;7898;48.658;9.068;2022-09-25T11:21:46;12.38;;;8.85;;
15595;SDS011;7898;48.658;9.068;2022-09-25T11:24:22;7.65;;;6.85;;
15595;SDS011;7898;48.658;9.068;2022-09-25T11:26:55;13.70;;;8.82;;
15595;SDS011;7898;48.658;9.068;2022-09-25T11:29:34;9.63;;;7.85;;
15595;SDS011;7898;48.658;9.068;2022-09-25T11:32:09;10.63;;;8.07;;
15595;SDS011;7898;48.658;9.068;2022-09-25T11:34:53;11.77;;;7.90;;
15595;SDS011;7898;48.658;9.068;2022-09-25T11:37:46;13.95;;;8.60;;
15595;SDS011;7898;48.658;9.068;2022-09-25T11:40:22;9.55;;;8.48;;
15595;SDS011;7898;48.658;9.068;2022-09-25T11:43:14;9.85;;;8.23;;
15595;SDS011;7898;48.658;9.068;2022-09-25T11:45:48;10.15;;;8.27;;
15595;SDS011;7898;48.658;9.068;2022-09-25T11:48:21;12.43;;;8.38;;
15595;SDS011;7898;48.658;9.068;2022-09-25T11:50:55;13.10;;;8.95;;
15595;SDS011;7898;48.658;9.068;2022-09-25T11:53:32;12.32;;;8.75;;
15595;SDS011;7898;48.658;9.068;2022-09-25T11:56:11;12.23;;;9.32;;
15595;SDS011;7898;48.658;9.068;2022-09-25T11:58:50;16.27;;;13.95;;
15595;SDS011;7898;48.658;9.068;2022-09-25T12:01:28;14.15;;;11.07;;
15595;SDS011;7898;48.658;9.068;2022-09-25T12:04:04;16.85;;;12.68;;
15595;SDS011;7898;48.658;9.068;2022-09-25T12:06:54;16.20;;;13.57;;
15595;SDS011;7898;48.658;9.068;2022-09-25T12:12:19;18.55;;;14.38;;
15595;SDS011;7898;48.658;9.068;2022-09-25T12:14:57;23.40;;;15.38;;
15595;SDS011;7898;48.658;9.068;2022-09-25T12:17:34;18.80;;;15.73;;
15595;SDS011;7898;48.658;9.068;2022-09-25T12:20:11;20.85;;;13.82;;
15595;SDS011;7898;48.658;9.068;2022-09-25T12:22:46;16.25;;;13.88;;
15595;SDS011;7898;48.658;9.068;2022-09-25T12:25:26;16.45;;;13.15;;
15595;SDS011;7898;48.658;9.068;2022-09-25T12:28:04;17.52;;;13.65;;
15595;SDS011;7898;48.658;9.068;2022-09-25T12:30:37;17.92;;;14.52;;
15595;SDS011;7898;48.658;9.068;2022-09-25T12:33:16;19.88;;;14.93;;
15595;SDS011;7898;48.658;9.068;2022-09-25T12:35:52;15.43;;;12.60;;
15595;SDS011;7898;48.658;9.068;2022-09-25T12:38:26;17.77;;;13.77;;
15595;SDS011;7898;48.658;9.068;2022-09-25T12:41:02;21.15;;;14.57;;
15595;SDS011;7898;48.658;9.068;2022-09-25T12:43:36;13.75;;;12.20;;
15595;SDS011;7898;48.658;9.068;2022-09-25T12:46:12;14.75;;;12.50;;
15595;SDS011;7898;48.658;9.068;2022-09-25T12:48:48;17.35;;;13.00;;
15595;SDS011;7898;48.658;9.068;2022-09-25T12:51:19;17.33;;;13.32;;
15595;SDS011;7898;48.658;9.068;2022-09-25T12:53:50;16.08;;;12.25;;
15595;SDS011;7898;48.658;9.068;2022-09-25T12:56:21;13.35;;;11.90;;
15595;SDS011;7898;48.658;9.068;2022-09-25T12:58:55;13.70;;;11.88;;
15595;SDS011;7898;48.658;9.068;2022-09-25T13:01:32;13.52;;;11.52;;
15595;SDS011;7898;48.658;9.068;2022-09-25T13:07:15;15.43;;;13.15;;
15595;SDS011;7898;48.658;9.068;2022-09-25T13:09:47;14.27;;;11.95;;
15595;SDS011;7898;48.658;9.068;2022-09-25T13:12:17;12.77;;;11.27;;
15595;SDS011;7898;48.658;9.068;2022-09-25T13:14:50;15.80;;;13.00;;
15595;SDS011;7898;48.658;9.068;2022-09-25T13:17:21;16.58;;;14.20;;
15595;SDS011;7898;48.658;9.068;2022-09-25T13:19:48;56.30;;;41.85;;
15595;SDS011;7898;48.658;9.068;2022-09-25T13:22:18;30.65;;;20.67;;
15595;SDS011;7898;48.658;9.068;2022-09-25T13:24:49;14.43;;;12.77;;
15595;SDS011;7898;48.658;9.068;2022-09-25T13:27:22;17.00;;;13.50;;
15595;SDS011;7898;48.658;9.068;2022-09-25T13:29:52;16.60;;;13.00;;
15595;SDS011;7898;48.658;9.068;2022-09-25T13:32:23;14.95;;;12.40;;
15595;SDS011;7898;48.658;9.068;2022-09-25T13:34:59;16.35;;;13.57;;
15595;SDS011;7898;48.658;9.068;2022-09-25T13:37:32;15.95;;;13.10;;
15595;SDS011;7898;48.658;9.068;2022-09-25T13:40:01;20.65;;;15.95;;
15595;SDS011;7898;48.658;9.068;2022-09-25T13:43:15;18.60;;;15.48;;
15595;SDS011;7898;48.658;9.068;2022-09-25T13:45:42;26.65;;;19.05;;
15595;SDS011;7898;48.658;9.068;2022-09-25T13:48:10;15.70;;;12.30;;
15595;SDS011;7898;48.658;9.068;2022-09-25T13:50:42;15.35;;;13.07;;
15595;SDS011;7898;48.658;9.068;2022-09-25T13:53:18;18.70;;;14.90;;
15595;SDS011;7898;48.658;9.068;2022-09-25T13:56:12;21.45;;;16.30;;
15595;SDS011;7898;48.658;9.068;2022-09-25T13:59:02;20.42;;;15.77;;
15595;SDS011;7898;48.658;9.068;2022-09-25T14:01:45;19.98;;;12.57;;
15595;SDS011;7898;48.658;9.068;2022-09-25T14:07:04;16.33;;;13.27;;
15595;SDS011;7898;48.658;9.068;2022-09-25T14:09:39;19.58;;;13.32;;
15595;SDS011;7898;48.658;9.068;2022-09-25T14:12:12;15.60;;;13.13;;
15595;SDS011;7898;48.658;9.068;2022-09-25T14:14:45;17.73;;;13.80;;
15595;SDS011;7898;48.658;9.068;2022-09-25T14:17:19;18.20;;;13.20;;
15595;SDS011;7898;48.658;9.068;2022-09-25T14:19:50;17.30;;;13.15;;
15595;SDS011;7898;48.658;9.068;2022-09-25T14:22:20;15.98;;;13.75;;
15595;SDS011;7898;48.658;9.068;2022-09-25T14:24:58;17.20;;;13.27;;
15595;SDS011;7898;48.658;9.068;2022-09-25T14:27:26;21.63;;;16.42;;
15595;SDS011;7898;48.658;9.068;2022-09-25T14:30:04;16.27;;;14.07;;
15595;SDS011;7898;48.658;9.068;2022-09-25T14:32:42;18.63;;;14.82;;
15595;SDS011;7898;48.658;9.068;2022-09-25T14:35:30;16.52;;;13.15;;
15595;SDS011;7898;48.658;9.068;2022-09-25T14:38:05;21.13;;;13.43;;
15595;SDS011;7898;48.658;9.068;2022-09-25T14:40:48;16.30;;;12.45;;
15595;SDS011;7898;48.658;9.068;2022-09-25T14:43:41;18.42;;;13.18;;
15595;SDS011;7898;48.658;9.068;2022-09-25T14:46:18;16.85;;;12.70;;
15595;SDS011;7898;48.658;9.068;2022-09-25T14:48:47;17.85;;;12.07;;
15595;SDS011;7898;48.658;9.068;2022-09-25T14:51:19;19.27;;;12.10;;
15595;SDS011;7898;48.658;9.068;2022-09-25T14:53:50;16.10;;;12.95;;
15595;SDS011;7898;48.658;9.068;2022-09-25T14:56:21;16.05;;;12.23;;
15595;SDS011;7898;48.658;9.068;2022-09-25T14:58:52;15.15;;;12.70;;
15595;SDS011;7898;48.658;9.068;2022-09-25T15:01:24;18.65;;;12.18;;
15595;SDS011;7898;48.658;9.068;2022-09-25T15:03:54;17.25;;;13.15;;
15595;SDS011;7898;48.658;9.068;2022-09-25T15:06:24;17.42;;;12.18;;
15595;SDS011;7898;48.658;9.068;2022-09-25T15:08:53;16.25;;;13.77;;
15595;SDS011;7898;48.658;9.068;2022-09-25T15:11:22;18.90;;;13.20;;
15595;SDS011;7898;48.658;9.068;2022-09-25T15:13:53;17.30;;;12.80;;
15595;SDS011;7898;48.658;9.068;2022-09-25T15:16:34;16.45;;;12.43;;
15595;SDS011;7898;48.658;9.068;2022-09-25T15:19:21;15.88;;;12.27;;
15595;SDS011;7898;48.658;9.068;2022-09-25T15:21:52;22.42;;;14.35;;
15595;SDS011;7898;48.658;9.068;2022-09-25T15:24:20;16.85;;;13.15;;